Time;durP1;ratioP1;P1;durP2;ratioP2;P2;SDS_P1;SDS_P2;PMS_P1;PMS_P2;Temp;Humidity;BMP_temperature;BMP_pressure;BME280_temperature;BME280_humidity;BME280_pressure;Samples;Min_cycle;Max_cycle;Signal;HPM_P1;HPM_P2
2021/08/17 00:01:46;;;;;;;1.42;0.30;;;;;;;;;;5035126;28;20037;-71
2021/08/17 00:04:13;;;;;;;4.03;0.65;;;;;;;;;;5041414;28;20493;-72
2021/08/17 00:06:40;;;;;;;3.20;0.20;;;;;;;;;;5026742;28;20038;-71
2021/08/17 00:09:07;;;;;;;2.72;0.80;;;;;;;;;;5030781;28;20033;-71
2021/08/17 00:11:35;;;;;;;1.55;0.32;;;;;;;;;;5042749;28;20025;-71
2021/08/17 00:14:02;;;;;;;1.88;0.50;;;;;;;;;;5012356;28;20084;-71
2021/08/17 00:16:29;;;;;;;1.70;0.30;;;;;;;;;;5030364;28;20029;-72
2021/08/17 00:18:56;;;;;;;0.60;0.35;;;;;;;;;;5027850;28;20037;-73
2021/08/17 00:21:23;;;;;;;1.63;0.20;;;;;;;;;;5031051;28;20048;-71
2021/08/17 00:23:50;;;;;;;2.75;0.30;;;;;;;;;;5016272;28;20033;-71
2021/08/17 00:26:17;;;;;;;1.60;0.30;;;;;;;;;;5033336;28;20070;-72
2021/08/17 00:28:44;;;;;;;2.35;0.40;;;;;;;;;;5047381;28;20027;-71
2021/08/17 00:31:11;;;;;;;4.00;0.15;;;;;;;;;;5037295;28;20023;-72
2021/08/17 00:33:39;;;;;;;2.05;0.28;;;;;;;;;;5040270;28;20123;-71
2021/08/17 00:36:07;;;;;;;2.65;0.22;;;;;;;;;;5039131;28;20081;-69
2021/08/17 00:38:38;;;;;;;3.00;0.30;;;;;;;;;;5050672;28;20029;-71
2021/08/17 00:41:06;;;;;;;3.00;0.30;;;;;;;;;;5038424;28;20033;-70
2021/08/17 00:43:33;;;;;;;1.05;0.20;;;;;;;;;;5032507;28;20125;-69
2021/08/17 00:46:01;;;;;;;2.00;0.50;;;;;;;;;;5035422;28;20480;-71
2021/08/17 00:48:28;;;;;;;2.10;0.17;;;;;;;;;;5036197;28;20105;-68
2021/08/17 00:50:55;;;;;;;2.17;0.30;;;;;;;;;;5044164;28;20045;-69
2021/08/17 00:53:22;;;;;;;3.75;0.35;;;;;;;;;;5036404;28;20449;-69
2021/08/17 00:55:50;;;;;;;1.05;0.20;;;;;;;;;;5030408;28;20045;-70
2021/08/17 00:58:19;;;;;;;2.30;0.25;;;;;;;;;;5040660;28;20037;-70
2021/08/17 01:00:48;;;;;;;0.73;0.20;;;;;;;;;;5024701;28;20034;-70
2021/08/17 01:03:15;;;;;;;0.35;0.10;;;;;;;;;;5033154;28;20394;-69
2021/08/17 01:05:42;;;;;;;1.92;0.20;;;;;;;;;;5034516;28;20045;-70
2021/08/17 01:08:09;;;;;;;0.85;0.25;;;;;;;;;;5030666;28;20072;-70
2021/08/17 01:10:39;;;;;;;1.75;0.30;;;;;;;;;;5035257;28;20021;-70
2021/08/17 01:13:06;;;;;;;1.30;0.10;;;;;;;;;;5030657;28;20092;-70
2021/08/17 01:15:33;;;;;;;0.43;0.20;;;;;;;;;;5037012;28;20037;-69
2021/08/17 01:18:00;;;;;;;1.90;0.25;;;;;;;;;;5042723;28;20606;-70
2021/08/17 01:20:28;;;;;;;1.42;0.10;;;;;;;;;;5033861;28;20038;-70
2021/08/17 01:22:55;;;;;;;2.50;0.20;;;;;;;;;;5043408;28;20443;-70
2021/08/17 01:25:24;;;;;;;2.22;0.68;;;;;;;;;;5027634;28;20045;-69
2021/08/17 01:27:51;;;;;;;1.08;0.20;;;;;;;;;;5034616;28;20030;-69
2021/08/17 01:30:18;;;;;;;0.40;0.10;;;;;;;;;;5035125;28;20030;-68
2021/08/17 01:32:48;;;;;;;0.85;0.20;;;;;;;;;;5044518;28;20065;-71
2021/08/17 01:35:16;;;;;;;3.25;0.17;;;;;;;;;;5050283;28;20036;-70
2021/08/17 01:37:43;;;;;;;3.80;0.20;;;;;;;;;;5013750;28;20394;-70
2021/08/17 01:40:12;;;;;;;0.88;0.20;;;;;;;;;;5036458;28;20045;-71
2021/08/17 01:42:46;;;;;;;1.45;0.10;;;;;;;;;;5036135;28;20037;-70
2021/08/17 01:45:16;;;;;;;1.35;0.43;;;;;;;;;;5030988;28;20069;-70
2021/08/17 01:47:44;;;;;;;1.13;0.17;;;;;;;;;;5031287;28;20690;-70
2021/08/17 01:50:13;;;;;;;3.65;0.38;;;;;;;;;;5032499;28;20034;-70
2021/08/17 01:52:40;;;;;;;0.82;0.20;;;;;;;;;;5033647;28;20073;-70
2021/08/17 01:55:08;;;;;;;1.25;0.20;;;;;;;;;;5051791;28;20048;-70
2021/08/17 01:57:37;;;;;;;0.70;0.10;;;;;;;;;;5045763;28;20134;-71
2021/08/17 02:00:05;;;;;;;0.63;0.10;;;;;;;;;;5037175;28;20141;-70
2021/08/17 02:02:32;;;;;;;0.95;0.20;;;;;;;;;;5040863;28;20390;-71
2021/08/17 02:04:59;;;;;;;1.50;0.20;;;;;;;;;;5028707;28;20038;-71
2021/08/17 02:07:26;;;;;;;0.45;0.10;;;;;;;;;;5033294;28;20136;-71
2021/08/17 02:09:53;;;;;;;1.27;0.20;;;;;;;;;;5033781;28;20556;-71
2021/08/17 02:12:20;;;;;;;0.25;0.00;;;;;;;;;;5036958;28;20041;-70
2021/08/17 02:14:48;;;;;;;1.00;0.10;;;;;;;;;;5041799;28;20241;-71
2021/08/17 02:17:15;;;;;;;1.27;0.10;;;;;;;;;;5028443;28;20033;-69
2021/08/17 02:19:42;;;;;;;0.68;0.10;;;;;;;;;;5030964;28;20041;-70
2021/08/17 02:22:09;;;;;;;2.05;0.13;;;;;;;;;;5031854;28;20045;-70
2021/08/17 02:24:37;;;;;;;1.95;0.28;;;;;;;;;;5030806;28;20186;-70
2021/08/17 02:27:05;;;;;;;1.05;0.17;;;;;;;;;;5031404;28;20028;-70
2021/08/17 02:29:32;;;;;;;0.80;0.28;;;;;;;;;;5032726;28;20033;-71
2021/08/17 02:31:59;;;;;;;0.75;0.10;;;;;;;;;;5032446;28;20124;-70
2021/08/17 02:34:26;;;;;;;0.50;0.13;;;;;;;;;;5032611;28;20099;-70
2021/08/17 02:36:53;;;;;;;1.40;0.13;;;;;;;;;;5030618;28;20026;-70
2021/08/17 02:39:20;;;;;;;1.42;0.20;;;;;;;;;;5031108;28;20038;-70
2021/08/17 02:41:47;;;;;;;0.45;0.10;;;;;;;;;;5032508;28;20032;-70
2021/08/17 02:44:15;;;;;;;2.53;0.38;;;;;;;;;;5031477;28;20037;-70
2021/08/17 02:46:42;;;;;;;1.13;0.20;;;;;;;;;;5030404;28;20029;-70
2021/08/17 02:49:09;;;;;;;2.25;0.22;;;;;;;;;;5025420;28;20038;-70
2021/08/17 02:51:36;;;;;;;3.03;0.30;;;;;;;;;;5009223;28;20108;-70
2021/08/17 02:54:03;;;;;;;1.77;0.20;;;;;;;;;;5030535;28;20076;-71
2021/08/17 02:56:31;;;;;;;1.13;0.20;;;;;;;;;;5014105;28;20065;-71
2021/08/17 02:58:58;;;;;;;2.00;0.30;;;;;;;;;;5029881;28;20037;-69
2021/08/17 03:01:25;;;;;;;1.02;0.32;;;;;;;;;;5012141;28;20037;-70
2021/08/17 03:03:52;;;;;;;0.82;0.30;;;;;;;;;;5025038;28;20057;-70
2021/08/17 03:06:19;;;;;;;1.90;0.20;;;;;;;;;;5027970;28;20033;-71
2021/08/17 03:08:49;;;;;;;2.30;0.25;;;;;;;;;;5028966;28;20041;-71
2021/08/17 03:11:16;;;;;;;0.85;0.10;;;;;;;;;;5031641;28;20109;-70
2021/08/17 03:13:43;;;;;;;1.10;0.17;;;;;;;;;;5029677;28;20072;-71
2021/08/17 03:16:10;;;;;;;1.33;0.20;;;;;;;;;;5030499;28;20517;-71
2021/08/17 03:18:37;;;;;;;1.05;0.20;;;;;;;;;;5026229;28;20125;-71
2021/08/17 03:21:04;;;;;;;1.42;0.30;;;;;;;;;;5026328;28;20112;-71
2021/08/17 03:23:31;;;;;;;1.25;0.20;;;;;;;;;;5029898;28;20053;-70
2021/08/17 03:25:58;;;;;;;0.95;0.20;;;;;;;;;;5031656;28;20099;-72
2021/08/17 03:28:26;;;;;;;1.95;0.35;;;;;;;;;;5011767;28;20091;-70
2021/08/17 03:30:53;;;;;;;1.98;0.40;;;;;;;;;;5031194;28;20379;-71
2021/08/17 03:33:20;;;;;;;0.68;0.20;;;;;;;;;;5028005;28;20549;-71
2021/08/17 03:35:48;;;;;;;2.42;0.20;;;;;;;;;;5026007;28;20049;-70
2021/08/17 03:38:15;;;;;;;2.08;0.10;;;;;;;;;;5029038;28;20119;-71
2021/08/17 03:40:43;;;;;;;1.55;0.20;;;;;;;;;;5033908;28;20033;-71
2021/08/17 03:43:10;;;;;;;1.25;0.10;;;;;;;;;;5027089;28;20068;-70
2021/08/17 03:45:37;;;;;;;2.03;0.20;;;;;;;;;;5027810;28;20038;-70
2021/08/17 03:48:04;;;;;;;0.98;0.20;;;;;;;;;;5015517;28;20125;-70
2021/08/17 03:50:32;;;;;;;2.40;0.10;;;;;;;;;;5031918;28;20033;-69
2021/08/17 03:52:59;;;;;;;4.97;0.30;;;;;;;;;;5012171;28;20117;-70
2021/08/17 03:55:27;;;;;;;1.58;0.20;;;;;;;;;;5028489;28;20057;-69
2021/08/17 03:57:54;;;;;;;0.60;0.15;;;;;;;;;;5028130;28;20025;-70
2021/08/17 04:00:25;;;;;;;1.98;0.32;;;;;;;;;;5030505;28;20038;-70
2021/08/17 04:02:52;;;;;;;0.98;0.10;;;;;;;;;;5028444;28;20033;-69
2021/08/17 04:05:20;;;;;;;1.17;0.10;;;;;;;;;;5029016;28;20520;-70
2021/08/17 04:07:47;;;;;;;1.90;0.10;;;;;;;;;;5027959;28;20037;-70
2021/08/17 04:10:14;;;;;;;2.40;0.30;;;;;;;;;;5031952;28;20033;-70
2021/08/17 04:12:41;;;;;;;1.60;0.13;;;;;;;;;;5029227;28;20021;-70
2021/08/17 04:15:09;;;;;;;1.40;0.10;;;;;;;;;;5029068;28;20546;-70
2021/08/17 04:17:36;;;;;;;2.75;0.55;;;;;;;;;;5026269;28;20060;-70
2021/08/17 04:20:04;;;;;;;2.33;0.30;;;;;;;;;;5028910;28;20029;-70
2021/08/17 04:22:31;;;;;;;3.60;0.35;;;;;;;;;;5009481;28;20558;-70
2021/08/17 04:24:58;;;;;;;3.78;0.57;;;;;;;;;;5024417;28;20042;-71
2021/08/17 04:27:25;;;;;;;2.22;0.60;;;;;;;;;;5025950;28;20026;-70
2021/08/17 04:29:52;;;;;;;4.22;0.10;;;;;;;;;;5029699;28;20037;-71
2021/08/17 04:32:19;;;;;;;2.10;0.10;;;;;;;;;;5029211;28;20040;-70
2021/08/17 04:34:47;;;;;;;0.80;0.17;;;;;;;;;;5029061;28;20040;-72
2021/08/17 04:37:14;;;;;;;1.90;0.55;;;;;;;;;;5028235;28;20609;-71
2021/08/17 04:39:41;;;;;;;3.95;0.30;;;;;;;;;;5029815;28;20035;-71
2021/08/17 04:42:08;;;;;;;1.42;0.20;;;;;;;;;;5028946;28;20044;-71
2021/08/17 04:44:36;;;;;;;1.85;0.20;;;;;;;;;;5029503;28;20121;-71
2021/08/17 04:47:03;;;;;;;2.85;0.20;;;;;;;;;;5017939;28;20084;-71
2021/08/17 04:49:31;;;;;;;0.80;0.20;;;;;;;;;;5021921;28;20117;-72
2021/08/17 04:51:58;;;;;;;2.95;0.30;;;;;;;;;;5006261;28;20045;-71
2021/08/17 04:54:25;;;;;;;4.07;0.20;;;;;;;;;;5030154;28;20037;-71
2021/08/17 04:56:53;;;;;;;2.20;0.30;;;;;;;;;;5030133;28;20044;-71
2021/08/17 04:59:20;;;;;;;0.93;0.10;;;;;;;;;;5030276;28;20037;-70
2021/08/17 05:01:49;;;;;;;2.55;0.40;;;;;;;;;;5030531;28;20036;-71
2021/08/17 05:04:16;;;;;;;2.92;0.57;;;;;;;;;;5029937;28;20040;-71
2021/08/17 05:06:43;;;;;;;1.35;0.40;;;;;;;;;;5030150;28;20082;-71
2021/08/17 05:09:10;;;;;;;4.50;0.80;;;;;;;;;;5029550;28;20036;-71
2021/08/17 05:11:38;;;;;;;2.92;0.30;;;;;;;;;;5029364;28;20049;-70
2021/08/17 05:14:07;;;;;;;1.98;0.20;;;;;;;;;;5028989;28;20040;-71
2021/08/17 05:16:34;;;;;;;0.80;0.28;;;;;;;;;;5030523;28;20029;-70
2021/08/17 05:19:01;;;;;;;1.23;0.10;;;;;;;;;;5029017;28;20398;-71
2021/08/17 05:21:28;;;;;;;0.77;0.20;;;;;;;;;;5023448;28;20119;-70
2021/08/17 05:23:58;;;;;;;2.42;0.47;;;;;;;;;;5012546;28;20038;-72
2021/08/17 05:26:25;;;;;;;0.77;0.30;;;;;;;;;;5031370;28;20493;-71
2021/08/17 05:28:53;;;;;;;3.78;0.25;;;;;;;;;;5031668;28;20116;-71
2021/08/17 05:31:20;;;;;;;1.42;0.20;;;;;;;;;;5033212;28;20049;-71
2021/08/17 05:33:50;;;;;;;0.55;0.10;;;;;;;;;;5031297;28;20136;-71
2021/08/17 05:36:17;;;;;;;7.43;1.17;;;;;;;;;;5035153;28;20037;-70
2021/08/17 05:38:44;;;;;;;1.45;0.30;;;;;;;;;;5018094;28;20045;-71
2021/08/17 05:41:12;;;;;;;1.42;0.20;;;;;;;;;;5032776;28;20080;-70
2021/08/17 05:43:39;;;;;;;3.50;0.90;;;;;;;;;;5035824;28;20034;-70
2021/08/17 05:46:07;;;;;;;1.13;0.57;;;;;;;;;;5034740;28;20068;-72
2021/08/17 05:48:34;;;;;;;1.75;0.40;;;;;;;;;;5030825;28;20037;-70
2021/08/17 05:51:01;;;;;;;4.45;0.30;;;;;;;;;;5033531;28;20399;-71
2021/08/17 05:53:31;;;;;;;1.20;0.40;;;;;;;;;;5015382;28;20049;-71
2021/08/17 05:55:58;;;;;;;0.68;0.32;;;;;;;;;;5034561;28;20067;-71
2021/08/17 05:58:25;;;;;;;0.82;0.47;;;;;;;;;;5030401;28;20095;-70
2021/08/17 06:00:52;;;;;;;2.30;0.10;;;;;;;;;;5037019;28;20036;-71
2021/08/17 06:03:19;;;;;;;1.55;0.10;;;;;;;;;;5035702;28;20507;-70
2021/08/17 06:05:46;;;;;;;6.43;0.60;;;;;;;;;;5020775;28;20088;-70
2021/08/17 06:08:14;;;;;;;1.33;0.30;;;;;;;;;;5030746;28;20026;-71
2021/08/17 06:10:41;;;;;;;1.50;0.30;;;;;;;;;;5036757;28;20033;-70
2021/08/17 06:13:08;;;;;;;1.30;0.20;;;;;;;;;;5035917;28;20048;-71
2021/08/17 06:15:35;;;;;;;3.60;0.30;;;;;;;;;;5045306;28;20048;-71
2021/08/17 06:18:04;;;;;;;1.05;0.15;;;;;;;;;;5018829;28;20044;-71
2021/08/17 06:20:32;;;;;;;1.70;0.20;;;;;;;;;;5033788;28;20382;-71
2021/08/17 06:22:59;;;;;;;3.05;0.30;;;;;;;;;;5040102;28;20099;-71
2021/08/17 06:25:27;;;;;;;1.10;0.20;;;;;;;;;;5049845;28;20104;-71
2021/08/17 06:27:54;;;;;;;3.70;0.20;;;;;;;;;;5038145;28;20037;-71
2021/08/17 06:30:21;;;;;;;2.10;0.98;;;;;;;;;;5034250;28;20705;-71
2021/08/17 06:32:48;;;;;;;2.92;0.60;;;;;;;;;;5040144;28;20091;-71
2021/08/17 06:35:15;;;;;;;3.70;0.45;;;;;;;;;;5030489;28;20080;-71
2021/08/17 06:37:42;;;;;;;6.57;0.90;;;;;;;;;;5036438;28;20044;-71
2021/08/17 06:40:10;;;;;;;5.47;0.30;;;;;;;;;;5036542;28;20033;-71
2021/08/17 06:42:37;;;;;;;5.72;0.55;;;;;;;;;;5029258;28;20113;-71
2021/08/17 06:45:05;;;;;;;7.70;0.60;;;;;;;;;;5032796;28;20518;-71
2021/08/17 06:47:32;;;;;;;1.85;0.20;;;;;;;;;;5030652;28;20064;-71
2021/08/17 06:49:59;;;;;;;1.77;0.20;;;;;;;;;;5021650;28;20109;-71
2021/08/17 06:52:26;;;;;;;1.80;0.40;;;;;;;;;;5022852;28;20029;-72
2021/08/17 06:54:53;;;;;;;3.15;0.63;;;;;;;;;;5027788;28;20037;-71
2021/08/17 06:57:21;;;;;;;0.75;0.22;;;;;;;;;;5027080;28;20037;-70
2021/08/17 06:59:48;;;;;;;1.00;0.50;;;;;;;;;;5030510;28;20037;-70
2021/08/17 07:02:15;;;;;;;1.60;0.55;;;;;;;;;;5014599;28;20047;-71
2021/08/17 07:04:42;;;;;;;2.50;0.43;;;;;;;;;;5025296;28;20082;-71
2021/08/17 07:07:09;;;;;;;1.50;0.55;;;;;;;;;;5030087;28;20064;-71
2021/08/17 07:09:36;;;;;;;1.20;0.30;;;;;;;;;;5030974;28;20025;-71
2021/08/17 07:12:03;;;;;;;2.10;0.30;;;;;;;;;;5024177;28;20516;-71
2021/08/17 07:14:34;;;;;;;7.43;0.30;;;;;;;;;;5031162;28;20037;-71
2021/08/17 07:17:01;;;;;;;2.10;0.38;;;;;;;;;;5028419;28;20025;-71
2021/08/17 07:19:28;;;;;;;3.30;0.32;;;;;;;;;;5031680;28;20041;-71
2021/08/17 07:21:56;;;;;;;2.28;0.20;;;;;;;;;;5030829;28;20183;-71
2021/08/17 07:24:23;;;;;;;2.05;0.40;;;;;;;;;;5025358;28;20072;-71
2021/08/17 07:26:50;;;;;;;1.60;0.20;;;;;;;;;;5008335;28;20037;-71
2021/08/17 07:29:17;;;;;;;3.35;0.57;;;;;;;;;;5030117;28;20482;-73
2021/08/17 07:31:44;;;;;;;2.55;0.77;;;;;;;;;;5008248;28;20140;-72
2021/08/17 07:34:12;;;;;;;2.83;0.40;;;;;;;;;;5029582;28;20033;-70
2021/08/17 07:36:57;;;;;;;1.52;0.32;;;;;;;;;;5030029;28;20401;-71
2021/08/17 07:39:24;;;;;;;2.50;0.80;;;;;;;;;;5021374;28;20044;-71
2021/08/17 07:41:52;;;;;;;2.42;0.40;;;;;;;;;;5025688;28;20067;-69
2021/08/17 07:44:20;;;;;;;1.33;0.30;;;;;;;;;;5031946;28;20030;-71
2021/08/17 07:46:48;;;;;;;4.90;0.38;;;;;;;;;;5032152;28;20033;-71
2021/08/17 07:49:15;;;;;;;2.85;0.30;;;;;;;;;;5011227;28;20041;-71
2021/08/17 07:51:42;;;;;;;2.50;0.55;;;;;;;;;;5028691;28;21909;-71
2021/08/17 07:54:09;;;;;;;4.55;0.70;;;;;;;;;;5030989;28;20065;-72
2021/08/17 07:56:36;;;;;;;4.60;0.90;;;;;;;;;;5039233;28;20523;-71
2021/08/17 07:59:04;;;;;;;2.88;0.60;;;;;;;;;;5031118;28;20057;-71
2021/08/17 08:01:31;;;;;;;2.15;0.45;;;;;;;;;;5035592;28;20021;-70
2021/08/17 08:04:00;;;;;;;2.50;0.90;;;;;;;;;;5029659;28;20087;-71
2021/08/17 08:06:27;;;;;;;1.92;0.40;;;;;;;;;;5045005;28;20409;-71
2021/08/17 08:08:54;;;;;;;2.58;0.60;;;;;;;;;;5013487;28;20042;-71
2021/08/17 08:11:21;;;;;;;2.40;0.40;;;;;;;;;;5030871;28;20033;-71
2021/08/17 08:13:48;;;;;;;2.35;0.70;;;;;;;;;;5030350;28;20037;-69
2021/08/17 08:16:15;;;;;;;2.80;0.90;;;;;;;;;;5040403;28;20094;-70
2021/08/17 08:18:43;;;;;;;4.40;0.60;;;;;;;;;;5041064;28;20810;-70
2021/08/17 08:21:10;;;;;;;5.88;0.90;;;;;;;;;;5037594;28;20558;-70
2021/08/17 08:23:37;;;;;;;3.40;0.80;;;;;;;;;;5032539;28;20048;-71
2021/08/17 08:26:04;;;;;;;2.90;0.90;;;;;;;;;;5051272;28;20063;-70
2021/08/17 08:28:31;;;;;;;2.65;0.60;;;;;;;;;;5014931;28;20041;-70
2021/08/17 08:30:58;;;;;;;3.25;0.50;;;;;;;;;;5030812;28;20032;-70
2021/08/17 08:33:26;;;;;;;4.15;0.50;;;;;;;;;;5035920;28;20042;-71
2021/08/17 08:35:53;;;;;;;6.60;1.10;;;;;;;;;;5030139;28;20095;-71
2021/08/17 08:38:20;;;;;;;2.47;0.80;;;;;;;;;;5031133;28;20025;-70
2021/08/17 08:40:49;;;;;;;3.83;0.55;;;;;;;;;;5015888;28;20069;-71
2021/08/17 08:43:20;;;;;;;5.57;1.00;;;;;;;;;;5016604;28;20026;-71
2021/08/17 08:45:47;;;;;;;7.22;1.15;;;;;;;;;;5023735;28;20133;-71
2021/08/17 08:48:16;;;;;;;4.90;1.20;;;;;;;;;;5030921;28;20030;-71
2021/08/17 08:50:43;;;;;;;7.43;1.73;;;;;;;;;;5035219;28;20036;-71
2021/08/17 08:53:11;;;;;;;7.72;1.55;;;;;;;;;;5039814;28;20037;-71
2021/08/17 08:55:38;;;;;;;4.93;1.73;;;;;;;;;;5030396;28;20037;-69
2021/08/17 08:58:05;;;;;;;5.07;1.27;;;;;;;;;;5031316;28;20098;-70
2021/08/17 09:00:33;;;;;;;3.40;1.30;;;;;;;;;;5032899;28;20825;-70
2021/08/17 09:03:00;;;;;;;5.93;1.33;;;;;;;;;;5031868;28;20036;-70
2021/08/17 09:05:27;;;;;;;4.70;1.35;;;;;;;;;;5034391;28;20065;-69
2021/08/17 09:07:56;;;;;;;9.98;1.95;;;;;;;;;;5016116;28;20433;-70
2021/08/17 09:10:28;;;;;;;5.97;2.17;;;;;;;;;;5052322;28;20033;-70
2021/08/17 09:12:57;;;;;;;6.95;1.70;;;;;;;;;;5036104;28;20041;-70
2021/08/17 09:15:28;;;;;;;6.10;2.05;;;;;;;;;;5033917;28;20052;-70
2021/08/17 09:18:02;;;;;;;9.05;1.95;;;;;;;;;;5032090;28;20096;-70
2021/08/17 09:20:36;;;;;;;6.63;2.08;;;;;;;;;;5045569;28;20121;-70
2021/08/17 09:23:21;;;;;;;6.15;1.67;;;;;;;;;;5034273;28;20506;-69
2021/08/17 09:25:48;;;;;;;19.33;1.63;;;;;;;;;;5054966;28;20127;-69
2021/08/17 09:28:45;;;;;;;7.55;1.42;;;;;;;;;;5023101;28;20048;-69
2021/08/17 09:31:30;;;;;;;6.85;1.73;;;;;;;;;;5034817;28;20040;-69
2021/08/17 09:33:57;;;;;;;5.97;2.22;;;;;;;;;;5036286;28;20041;-69
2021/08/17 09:36:24;;;;;;;9.70;1.90;;;;;;;;;;5017914;28;20402;-69
2021/08/17 09:38:51;;;;;;;8.10;1.83;;;;;;;;;;5033984;28;20036;-69
2021/08/17 09:41:22;;;;;;;5.10;2.03;;;;;;;;;;5033883;28;20049;-69
2021/08/17 09:44:00;;;;;;;6.75;2.15;;;;;;;;;;5034022;28;20044;-70
2021/08/17 09:46:28;;;;;;;6.28;2.28;;;;;;;;;;5033670;28;20048;-69
2021/08/17 09:48:56;;;;;;;9.65;2.38;;;;;;;;;;5032501;28;20532;-70
2021/08/17 09:51:36;;;;;;;9.48;3.00;;;;;;;;;;5042633;28;20091;-70
2021/08/17 09:54:19;;;;;;;11.35;2.47;;;;;;;;;;5053171;28;20450;-70
2021/08/17 09:57:00;;;;;;;7.78;2.45;;;;;;;;;;5027879;28;20041;-70
2021/08/17 09:59:29;;;;;;;9.48;2.30;;;;;;;;;;5034006;28;20029;-70
2021/08/17 10:01:57;;;;;;;9.75;2.83;;;;;;;;;;5034280;28;20505;-69
2021/08/17 10:04:24;;;;;;;7.57;2.08;;;;;;;;;;5015782;28;20060;-69
2021/08/17 10:06:52;;;;;;;5.82;2.00;;;;;;;;;;5032641;28;20450;-69
2021/08/17 10:09:20;;;;;;;12.18;2.72;;;;;;;;;;5015201;28;20154;-69
2021/08/17 10:11:47;;;;;;;10.90;2.30;;;;;;;;;;5034344;28;20386;-69
2021/08/17 10:14:15;;;;;;;11.13;2.08;;;;;;;;;;5034646;28;20036;-70
2021/08/17 10:16:43;;;;;;;8.40;2.72;;;;;;;;;;5034289;28;20036;-69
2021/08/17 10:19:11;;;;;;;12.38;2.78;;;;;;;;;;5033702;28;20112;-69
2021/08/17 10:21:43;;;;;;;12.65;2.53;;;;;;;;;;5034420;28;20367;-70
2021/08/17 10:24:28;;;;;;;8.07;2.13;;;;;;;;;;5038050;28;20045;-70
2021/08/17 10:27:13;;;;;;;10.80;2.40;;;;;;;;;;5015263;28;20034;-70
2021/08/17 10:29:51;;;;;;;5.38;1.70;;;;;;;;;;5014792;28;20033;-70
2021/08/17 10:32:36;;;;;;;10.30;2.03;;;;;;;;;;5033068;28;20052;-70
2021/08/17 10:35:04;;;;;;;12.18;2.40;;;;;;;;;;5033104;28;20038;-70
2021/08/17 10:37:31;;;;;;;10.10;2.03;;;;;;;;;;5036932;28;20032;-69
2021/08/17 10:39:58;;;;;;;7.05;1.85;;;;;;;;;;5032875;28;20450;-69
2021/08/17 10:42:26;;;;;;;5.05;1.67;;;;;;;;;;5034036;28;20390;-70
2021/08/17 10:44:54;;;;;;;11.77;3.15;;;;;;;;;;5031159;28;20046;-70
2021/08/17 10:47:34;;;;;;;6.57;2.38;;;;;;;;;;5032788;28;20433;-70
2021/08/17 10:50:02;;;;;;;7.57;1.98;;;;;;;;;;5027538;28;20061;-70
2021/08/17 10:52:33;;;;;;;5.93;2.10;;;;;;;;;;5042829;28;20569;-70
2021/08/17 10:55:19;;;;;;;8.10;1.90;;;;;;;;;;5033922;28;20040;-69
2021/08/17 10:57:50;;;;;;;9.77;1.48;;;;;;;;;;5014450;28;20044;-69
2021/08/17 11:00:50;;;;;;;6.75;2.03;;;;;;;;;;5015719;28;20037;-69
2021/08/17 11:03:36;;;;;;;4.10;1.48;;;;;;;;;;4975678;28;20076;-70
2021/08/17 11:06:04;;;;;;;7.82;1.90;;;;;;;;;;5038402;28;20042;-71
2021/08/17 11:08:35;;;;;;;8.23;2.00;;;;;;;;;;5031827;28;20046;-71
2021/08/17 11:11:04;;;;;;;6.43;1.83;;;;;;;;;;5031133;28;20029;-71
2021/08/17 11:13:31;;;;;;;8.02;1.63;;;;;;;;;;5031771;28;20029;-70
2021/08/17 11:16:11;;;;;;;4.85;2.17;;;;;;;;;;5029020;28;20163;-71
2021/08/17 11:18:55;;;;;;;4.88;1.30;;;;;;;;;;5013619;28;20049;-70
2021/08/17 11:21:36;;;;;;;5.35;1.80;;;;;;;;;;5028439;28;20116;-70
2021/08/17 11:24:14;;;;;;;5.35;1.27;;;;;;;;;;5031791;28;20537;-70
2021/08/17 11:26:46;;;;;;;4.72;1.77;;;;;;;;;;5029278;28;20049;-70
2021/08/17 11:29:24;;;;;;;3.88;1.08;;;;;;;;;;5031838;28;20513;-70
2021/08/17 11:31:51;;;;;;;4.60;1.67;;;;;;;;;;5035214;28;20045;-71
2021/08/17 11:34:18;;;;;;;3.88;1.58;;;;;;;;;;5029790;28;20136;-70
2021/08/17 11:36:52;;;;;;;4.28;1.83;;;;;;;;;;5037445;28;20025;-71
2021/08/17 11:39:21;;;;;;;5.85;1.23;;;;;;;;;;5030421;28;20022;-70
2021/08/17 11:41:48;;;;;;;5.53;1.67;;;;;;;;;;5031424;28;20030;-70
2021/08/17 11:44:16;;;;;;;4.60;1.25;;;;;;;;;;5035952;28;20478;-69
2021/08/17 11:46:43;;;;;;;3.55;1.20;;;;;;;;;;5042178;28;20549;-69
2021/08/17 11:49:23;;;;;;;6.82;1.67;;;;;;;;;;5032069;28;20038;-69
2021/08/17 11:52:10;;;;;;;6.20;2.75;;;;;;;;;;5050036;28;20025;-70
2021/08/17 11:54:43;;;;;;;5.88;2.15;;;;;;;;;;5050776;28;20083;-70
2021/08/17 11:57:10;;;;;;;6.00;2.28;;;;;;;;;;5032671;28;20482;-70
2021/08/17 11:59:44;;;;;;;8.88;2.55;;;;;;;;;;5031236;28;20045;-70
2021/08/17 12:02:12;;;;;;;10.07;2.17;;;;;;;;;;5030869;28;20033;-70
2021/08/17 12:04:39;;;;;;;7.20;2.20;;;;;;;;;;5035606;28;20291;-70
2021/08/17 12:07:07;;;;;;;5.32;1.92;;;;;;;;;;5030349;28;20033;-70
2021/08/17 12:09:41;;;;;;;5.15;2.05;;;;;;;;;;5013418;28;20457;-70
2021/08/17 12:12:09;;;;;;;3.80;1.85;;;;;;;;;;5045958;28;20044;-70
2021/08/17 12:14:37;;;;;;;4.88;1.75;;;;;;;;;;5033532;28;20044;-70
2021/08/17 12:17:04;;;;;;;6.65;2.00;;;;;;;;;;5034381;28;20025;-70
2021/08/17 12:19:33;;;;;;;6.55;2.17;;;;;;;;;;5032846;28;20034;-70
2021/08/17 12:22:01;;;;;;;4.93;1.75;;;;;;;;;;5033635;28;20025;-70
2021/08/17 12:24:30;;;;;;;7.10;2.05;;;;;;;;;;5030975;28;20037;-70
2021/08/17 12:26:59;;;;;;;5.18;2.33;;;;;;;;;;5016136;28;20172;-70
2021/08/17 12:29:26;;;;;;;6.63;2.35;;;;;;;;;;5030716;28;20030;-70
2021/08/17 12:31:54;;;;;;;6.63;2.10;;;;;;;;;;5028781;28;20048;-70
2021/08/17 12:34:23;;;;;;;6.32;1.98;;;;;;;;;;5036888;28;20030;-70
2021/08/17 12:36:53;;;;;;;4.40;1.88;;;;;;;;;;5034652;28;20029;-70
2021/08/17 12:39:22;;;;;;;6.15;2.10;;;;;;;;;;5014469;28;20037;-70
2021/08/17 12:41:57;;;;;;;5.07;2.03;;;;;;;;;;5017901;28;20045;-70
2021/08/17 12:44:23;;;;;;;;;;;;;;;;;;5038495;28;20447;-70
2021/08/17 12:47:01;;;;;;;9.52;2.05;;;;;;;;;;5037903;28;19940;-70
2021/08/17 12:49:46;;;;;;;8.23;1.95;;;;;;;;;;5031971;28;20160;-69
2021/08/17 12:52:19;;;;;;;5.38;1.80;;;;;;;;;;5040524;28;20091;-70
2021/08/17 12:54:46;;;;;;;6.45;1.45;;;;;;;;;;5040921;28;20030;-70
2021/08/17 12:57:20;;;;;;;5.63;1.70;;;;;;;;;;5048126;28;20394;-71
2021/08/17 12:59:48;;;;;;;5.80;1.17;;;;;;;;;;4997240;28;20045;-70
2021/08/17 13:02:15;;;;;;;3.83;1.27;;;;;;;;;;5035071;28;20547;-70
2021/08/17 13:04:45;;;;;;;4.15;1.25;;;;;;;;;;5037261;28;20134;-70
2021/08/17 13:07:12;;;;;;;4.32;1.25;;;;;;;;;;5033001;28;20621;-70
2021/08/17 13:09:40;;;;;;;4.97;1.48;;;;;;;;;;5015625;28;20128;-70
2021/08/17 13:12:08;;;;;;;3.55;1.20;;;;;;;;;;5034918;28;20101;-70
2021/08/17 13:14:35;;;;;;;3.72;1.35;;;;;;;;;;5043176;28;20552;-70
2021/08/17 13:17:03;;;;;;;6.15;1.50;;;;;;;;;;5035671;28;20045;-70
2021/08/17 13:19:30;;;;;;;5.55;1.50;;;;;;;;;;5033435;28;20037;-70
2021/08/17 13:22:00;;;;;;;4.85;1.40;;;;;;;;;;5034126;28;20036;-70
2021/08/17 13:24:27;;;;;;;3.42;1.20;;;;;;;;;;5036069;28;20034;-70
2021/08/17 13:26:58;;;;;;;2.30;0.80;;;;;;;;;;5030783;28;20057;-70
2021/08/17 13:29:25;;;;;;;3.58;1.85;;;;;;;;;;5033446;28;20450;-70
2021/08/17 13:31:52;;;;;;;4.30;1.27;;;;;;;;;;5033566;28;20124;-70
2021/08/17 13:34:19;;;;;;;3.17;1.13;;;;;;;;;;5026062;28;20037;-70
2021/08/17 13:36:46;;;;;;;5.93;1.00;;;;;;;;;;5033968;28;20045;-70
2021/08/17 13:39:13;;;;;;;3.75;0.80;;;;;;;;;;5034166;28;20038;-70
2021/08/17 13:41:41;;;;;;;5.95;1.27;;;;;;;;;;5038460;28;20041;-70
2021/08/17 13:44:08;;;;;;;5.70;1.55;;;;;;;;;;5041325;28;20060;-70
2021/08/17 13:46:35;;;;;;;7.03;1.13;;;;;;;;;;5028839;28;20041;-70
2021/08/17 13:49:02;;;;;;;2.83;0.80;;;;;;;;;;5032538;28;20042;-70
2021/08/17 13:51:30;;;;;;;3.30;0.90;;;;;;;;;;5037847;28;20028;-70
2021/08/17 13:53:57;;;;;;;4.80;1.10;;;;;;;;;;5034064;28;20025;-70
2021/08/17 13:56:24;;;;;;;4.72;0.95;;;;;;;;;;5033698;28;20060;-70
2021/08/17 13:58:51;;;;;;;2.30;0.50;;;;;;;;;;5033359;28;20393;-70
2021/08/17 14:01:19;;;;;;;3.88;0.40;;;;;;;;;;5034549;28;20045;-70
2021/08/17 14:03:46;;;;;;;2.08;0.38;;;;;;;;;;5044698;28;20091;-70
2021/08/17 14:06:14;;;;;;;2.03;0.50;;;;;;;;;;5037809;28;20451;-70
2021/08/17 14:08:42;;;;;;;4.63;0.70;;;;;;;;;;5017143;28;20033;-70
2021/08/17 14:11:09;;;;;;;4.18;0.47;;;;;;;;;;5042818;28;20044;-70
2021/08/17 14:13:37;;;;;;;0.95;0.38;;;;;;;;;;5032471;28;20390;-70
2021/08/17 14:16:04;;;;;;;1.30;0.40;;;;;;;;;;5030128;28;20038;-70
2021/08/17 14:18:36;;;;;;;1.42;0.60;;;;;;;;;;5029580;28;20533;-70
2021/08/17 14:21:05;;;;;;;2.15;0.60;;;;;;;;;;5033481;28;20056;-70
2021/08/17 14:23:33;;;;;;;1.25;0.50;;;;;;;;;;5033916;28;20040;-71
2021/08/17 14:26:01;;;;;;;6.38;0.88;;;;;;;;;;5033123;28;20033;-70
2021/08/17 14:28:28;;;;;;;5.70;0.70;;;;;;;;;;5013436;28;20041;-70
2021/08/17 14:30:55;;;;;;;2.40;0.50;;;;;;;;;;5032968;28;20046;-70
2021/08/17 14:33:23;;;;;;;1.42;0.57;;;;;;;;;;5032652;28;20494;-70
2021/08/17 14:35:50;;;;;;;3.63;1.02;;;;;;;;;;5035804;28;20053;-70
2021/08/17 14:38:17;;;;;;;3.47;0.60;;;;;;;;;;5033142;28;20516;-70
2021/08/17 14:40:45;;;;;;;3.08;0.55;;;;;;;;;;5032912;28;20038;-70
2021/08/17 14:43:12;;;;;;;1.70;0.68;;;;;;;;;;5034820;28;20533;-70
2021/08/17 14:45:42;;;;;;;2.75;0.47;;;;;;;;;;5039430;28;20128;-70
2021/08/17 14:48:10;;;;;;;2.10;0.52;;;;;;;;;;5032534;28;20037;-70
2021/08/17 14:50:38;;;;;;;2.55;0.57;;;;;;;;;;5032608;28;20486;-70
2021/08/17 14:53:06;;;;;;;5.55;1.38;;;;;;;;;;5024414;28;20041;-70